createdAt,value
2019-04-05T00:00:39.421Z,99.90
2019-04-05T00:03:07.809Z,99.90
2019-04-05T00:05:36.228Z,99.90
2019-04-05T00:08:04.759Z,99.90
2019-04-05T00:10:33.256Z,99.90
2019-04-05T00:13:01.715Z,99.90
2019-04-05T00:15:30.109Z,99.90
2019-04-05T00:17:58.526Z,99.90
2019-04-05T00:20:26.934Z,99.90
2019-04-05T00:22:55.343Z,99.90
2019-04-05T00:25:23.745Z,99.90
2019-04-05T00:27:52.155Z,99.90
2019-04-05T00:30:20.637Z,99.90
2019-04-05T00:32:49.218Z,99.90
2019-04-05T00:35:17.646Z,99.90
2019-04-05T00:37:46.040Z,99.90
2019-04-05T00:40:15.314Z,99.90
2019-04-05T00:42:45.634Z,99.90
2019-04-05T00:45:27.049Z,99.90
2019-04-05T00:47:44.313Z,99.90
2019-04-05T00:50:13.290Z,99.90
2019-04-05T00:52:41.725Z,99.90
2019-04-05T00:55:10.274Z,99.90
2019-04-05T00:57:38.747Z,99.90
2019-04-05T01:00:07.799Z,99.90
2019-04-05T01:02:36.197Z,99.90
2019-04-05T01:05:06.960Z,99.90
2019-04-05T01:07:35.497Z,99.90
2019-04-05T01:10:05.684Z,99.90
2019-04-05T01:12:34.806Z,99.90
2019-04-05T01:15:03.223Z,99.90
2019-04-05T01:17:31.804Z,99.90
2019-04-05T01:20:02.996Z,99.90
2019-04-05T01:22:34.026Z,99.90
2019-04-05T01:25:02.799Z,99.90
2019-04-05T01:27:32.237Z,99.90
2019-04-05T01:30:00.630Z,99.90
2019-04-05T01:32:29.145Z,99.90
2019-04-05T01:34:57.571Z,99.90
2019-04-05T01:37:26.525Z,99.90
2019-04-05T01:39:54.923Z,99.90
2019-04-05T01:42:23.986Z,99.90
2019-04-05T01:44:52.520Z,99.90
2019-04-05T01:47:20.936Z,99.90
2019-04-05T01:49:49.338Z,99.90
2019-04-05T01:52:17.814Z,99.90
2019-04-05T01:54:46.216Z,99.90
2019-04-05T01:57:14.631Z,99.90
2019-04-05T01:59:43.024Z,99.90
2019-04-05T02:02:11.586Z,99.90
2019-04-05T02:04:39.982Z,99.90
2019-04-05T02:07:08.380Z,99.90
2019-04-05T02:09:37.221Z,99.90
2019-04-05T02:12:05.707Z,99.90
2019-04-05T02:14:34.177Z,99.90
2019-04-05T02:17:02.645Z,99.90
2019-04-05T02:19:31.036Z,99.90
2019-04-05T02:21:59.501Z,99.90
2019-04-05T02:24:27.963Z,99.90
2019-04-05T02:26:56.369Z,99.90
2019-04-05T02:29:24.761Z,99.90
2019-04-05T02:31:54.081Z,99.90
2019-04-05T02:34:22.484Z,99.90
2019-04-05T02:36:50.963Z,99.90
2019-04-05T02:39:19.457Z,99.90
2019-04-05T02:41:49.608Z,99.90
2019-04-05T02:44:19.739Z,99.90
2019-04-05T02:46:49.585Z,99.90
2019-04-05T02:49:20.419Z,99.90
2019-04-05T02:51:49.564Z,99.90
2019-04-05T02:54:19.004Z,99.90
2019-04-05T02:56:50.751Z,99.90
2019-04-05T02:59:19.778Z,99.90
2019-04-05T03:01:49.538Z,99.90
2019-04-05T03:04:18.006Z,99.90
2019-04-05T03:06:48.718Z,99.90
2019-04-05T03:09:17.700Z,99.90
2019-04-05T03:11:46.604Z,99.90
2019-04-05T03:14:15.064Z,99.90
2019-04-05T03:16:46.577Z,99.90
2019-04-05T03:19:18.308Z,99.90
2019-04-05T03:21:49.790Z,99.90
2019-04-05T03:24:21.262Z,99.90
2019-04-05T03:26:52.746Z,99.90
2019-04-05T03:29:21.228Z,99.90
2019-04-05T03:31:49.830Z,99.90
2019-04-05T03:34:18.300Z,99.90
2019-04-05T03:36:46.867Z,99.90
2019-04-05T03:39:15.848Z,99.90
2019-04-05T03:41:44.498Z,99.90
2019-04-05T03:44:13.650Z,99.90
2019-04-05T03:46:55.398Z,99.90
2019-04-05T03:49:12.909Z,99.90
2019-04-05T03:51:41.617Z,99.90
2019-04-05T03:54:10.778Z,99.90
2019-04-05T03:56:39.265Z,99.90
2019-04-05T03:59:07.759Z,99.90
2019-04-05T04:01:36.992Z,99.90
2019-04-05T04:04:05.839Z,99.90
2019-04-05T04:06:34.313Z,99.90
2019-04-05T04:09:04.065Z,99.90
2019-04-05T04:11:32.983Z,99.90
2019-04-05T04:14:01.458Z,99.90
2019-04-05T04:16:30.095Z,99.90
2019-04-05T04:19:18.008Z,99.90
2019-04-05T04:21:57.811Z,99.90
2019-04-05T04:24:26.293Z,99.90
2019-04-05T04:26:54.967Z,99.90
2019-04-05T04:29:23.637Z,99.90
2019-04-05T04:31:52.021Z,99.90
2019-04-05T04:34:20.581Z,99.90
2019-04-05T04:36:49.051Z,99.90
2019-04-05T04:39:17.531Z,99.90
2019-04-05T04:41:46.163Z,99.90
2019-04-05T04:44:14.569Z,99.90
2019-04-05T04:46:43.398Z,99.90
2019-04-05T04:49:11.885Z,99.90
2019-04-05T04:51:40.725Z,99.90
2019-04-05T04:54:09.474Z,99.90
2019-04-05T04:56:38.139Z,99.90
2019-04-05T04:59:07.250Z,99.90
2019-04-05T05:01:35.788Z,99.90
2019-04-05T05:04:04.451Z,99.90
2019-04-05T05:06:32.928Z,99.90
2019-04-05T05:09:01.327Z,99.90
2019-04-05T05:11:29.881Z,99.90
2019-04-05T05:13:58.368Z,99.90
2019-04-05T05:16:27.000Z,99.90
2019-04-05T05:18:55.411Z,99.90
2019-04-05T05:21:24.148Z,99.90
2019-04-05T05:23:52.616Z,99.90
2019-04-05T05:26:21.325Z,99.90
2019-04-05T05:28:50.101Z,99.90
2019-04-05T05:31:18.960Z,99.90
2019-04-05T05:33:47.512Z,99.90
2019-04-05T05:36:16.275Z,99.90
2019-04-05T05:38:44.754Z,99.90
2019-04-05T05:41:13.145Z,99.90
2019-04-05T05:43:41.555Z,99.90
2019-04-05T05:46:10.016Z,99.90
2019-04-05T05:48:39.073Z,99.90
2019-04-05T05:51:07.535Z,99.90
2019-04-05T05:53:35.963Z,99.90
2019-04-05T05:56:04.451Z,99.90
2019-04-05T05:58:32.874Z,99.90
2019-04-05T06:01:01.268Z,99.90
2019-04-05T06:03:29.684Z,99.90
2019-04-05T06:06:04.160Z,99.90
2019-04-05T06:08:29.332Z,99.90
2019-04-05T06:10:58.363Z,99.90
2019-04-05T06:13:26.782Z,99.90
2019-04-05T06:15:55.257Z,99.90
2019-04-05T06:18:23.684Z,99.90
2019-04-05T06:20:52.091Z,99.90
2019-04-05T06:23:33.125Z,99.90
2019-04-05T06:25:50.615Z,99.90
2019-04-05T06:28:19.050Z,99.90
2019-04-05T06:30:48.073Z,99.90
2019-04-05T06:33:16.501Z,99.90
2019-04-05T06:35:44.922Z,99.90
2019-04-05T06:38:13.378Z,99.90
2019-04-05T06:40:41.773Z,99.90
2019-04-05T06:43:10.187Z,99.90
2019-04-05T06:45:38.573Z,99.90
2019-04-05T06:48:18.321Z,99.90
2019-04-05T06:50:37.143Z,99.90
2019-04-05T06:53:05.555Z,99.90
2019-04-05T06:55:34.219Z,99.90
2019-04-05T06:58:02.632Z,99.90
2019-04-05T07:00:31.083Z,99.90
2019-04-05T07:02:59.852Z,99.90
2019-04-05T07:05:28.497Z,99.90
2019-04-05T07:07:56.894Z,99.90
2019-04-05T07:10:25.287Z,99.90
2019-04-05T07:12:53.690Z,99.90
2019-04-05T07:15:22.163Z,99.90
2019-04-05T07:17:50.571Z,99.90
2019-04-05T07:20:19.043Z,99.90
2019-04-05T07:22:47.446Z,99.90
2019-04-05T07:25:15.890Z,99.90
2019-04-05T07:27:44.279Z,99.90
2019-04-05T07:30:13.326Z,99.90
2019-04-05T07:32:41.727Z,99.90
2019-04-05T07:35:10.218Z,99.90
2019-04-05T07:37:38.621Z,99.90
2019-04-05T07:40:08.183Z,99.90
2019-04-05T07:42:36.583Z,99.90
2019-04-05T07:45:06.803Z,99.90
2019-04-05T07:47:35.222Z,99.90
2019-04-05T07:50:05.776Z,99.90
2019-04-05T07:52:34.163Z,99.90
2019-04-05T07:55:02.572Z,99.90
2019-04-05T07:57:30.967Z,99.90
2019-04-05T07:59:59.381Z,99.90
2019-04-05T08:02:27.780Z,99.90
2019-04-05T08:04:56.200Z,99.90
2019-04-05T08:07:27.662Z,99.90
2019-04-05T08:09:56.725Z,99.90
2019-04-05T08:12:26.277Z,99.90
2019-04-05T08:14:55.733Z,99.90
2019-04-05T08:17:24.136Z,99.90
2019-04-05T08:19:52.533Z,99.90
2019-04-05T08:22:20.921Z,99.90
2019-04-05T08:24:49.339Z,99.90
2019-04-05T08:27:17.740Z,99.50
2019-04-05T08:29:46.141Z,99.40
2019-04-05T08:32:15.146Z,99.70
2019-04-05T08:34:44.017Z,99.70
2019-04-05T08:37:12.411Z,99.30
2019-04-05T08:39:40.809Z,99.60
2019-04-05T08:42:10.808Z,99.70
2019-04-05T08:44:39.489Z,99.80
2019-04-05T08:47:07.895Z,99.60
2019-04-05T08:49:36.323Z,98.70
2019-04-05T08:52:04.872Z,99.00
2019-04-05T08:54:36.497Z,99.20
2019-04-05T08:57:03.534Z,99.20
2019-04-05T08:59:31.961Z,99.40
2019-04-05T09:02:00.365Z,99.70
2019-04-05T09:04:28.756Z,99.30
2019-04-05T09:06:57.155Z,99.10
2019-04-05T09:09:25.570Z,99.00
2019-04-05T09:11:53.977Z,98.80
2019-04-05T09:14:22.397Z,98.60
2019-04-05T09:16:50.804Z,98.20
2019-04-05T09:19:23.717Z,98.30
2019-04-05T09:21:49.349Z,97.70
2019-04-05T09:24:17.763Z,97.70
2019-04-05T09:26:46.173Z,97.50
2019-04-05T09:29:14.587Z,97.40
2019-04-05T09:31:43.005Z,96.90
2019-04-05T09:34:11.419Z,96.10
2019-04-05T09:36:39.864Z,96.10
2019-04-05T09:39:14.999Z,96.00
2019-04-05T09:41:40.730Z,96.00
2019-04-05T09:44:09.147Z,95.60
2019-04-05T09:46:46.855Z,95.50
2019-04-05T09:49:07.683Z,95.60
2019-04-05T09:51:36.107Z,95.00
2019-04-05T09:54:05.254Z,95.30
2019-04-05T09:56:33.664Z,94.60
2019-04-05T09:59:02.086Z,94.30
2019-04-05T10:01:30.502Z,94.40
2019-04-05T10:03:58.894Z,94.10
2019-04-05T10:06:27.413Z,93.80
2019-04-05T10:08:55.818Z,94.00
2019-04-05T10:11:24.233Z,93.90
2019-04-05T10:13:52.647Z,93.80
2019-04-05T10:16:21.071Z,94.30
2019-04-05T10:18:51.486Z,94.20
2019-04-05T10:21:19.620Z,93.60
2019-04-05T10:23:48.024Z,93.50
2019-04-05T10:26:16.455Z,93.30
2019-04-05T10:28:44.851Z,92.60
2019-04-05T10:31:13.271Z,92.40
2019-04-05T10:33:41.662Z,92.70
2019-04-05T10:36:10.085Z,93.10
2019-04-05T10:38:38.487Z,92.90
2019-04-05T10:41:06.895Z,92.20
2019-04-05T10:43:35.373Z,92.30
2019-04-05T10:46:05.541Z,92.70
2019-04-05T10:48:35.389Z,92.80
2019-04-05T10:51:04.238Z,92.20
2019-04-05T10:53:32.715Z,92.30
2019-04-05T10:56:01.139Z,91.80
2019-04-05T10:58:29.625Z,91.50
2019-04-05T11:00:58.050Z,91.60
2019-04-05T11:03:26.466Z,91.10
2019-04-05T11:05:54.950Z,91.30
2019-04-05T11:08:23.359Z,90.90
2019-04-05T11:10:51.782Z,90.90
2019-04-05T11:13:20.187Z,91.20
2019-04-05T11:15:48.600Z,90.40
2019-04-05T11:18:17.000Z,90.00
2019-04-05T11:20:48.812Z,90.10
2019-04-05T11:23:15.533Z,89.70
2019-04-05T11:25:43.955Z,90.30
2019-04-05T11:28:12.360Z,90.90
2019-04-05T11:30:43.179Z,90.20
2019-04-05T11:33:11.731Z,90.30
2019-04-05T11:35:40.211Z,90.10
2019-04-05T11:38:08.689Z,90.40
2019-04-05T11:40:37.217Z,90.10
2019-04-05T11:43:05.799Z,90.30
2019-04-05T11:45:35.434Z,90.50
2019-04-05T11:48:05.358Z,90.00
2019-04-05T11:50:35.037Z,89.50
2019-04-05T11:53:03.822Z,90.40
2019-04-05T11:55:32.235Z,90.30
2019-04-05T11:58:00.656Z,90.90
2019-04-05T12:00:45.745Z,91.30
2019-04-05T12:03:18.885Z,90.80
2019-04-05T12:05:47.295Z,90.90
2019-04-05T12:08:15.945Z,91.30
2019-04-05T12:10:44.402Z,91.50
2019-04-05T12:13:12.839Z,91.70
2019-04-05T12:15:41.257Z,91.40
2019-04-05T12:18:09.697Z,91.70
2019-04-05T12:20:49.568Z,91.40
2019-04-05T12:23:08.267Z,91.50
2019-04-05T12:25:36.668Z,91.60
2019-04-05T12:28:06.953Z,92.00
2019-04-05T12:30:35.468Z,91.60
2019-04-05T12:33:13.882Z,91.60
2019-04-05T12:35:34.134Z,91.30
2019-04-05T12:38:02.550Z,91.40
2019-04-05T12:40:30.947Z,90.90
2019-04-05T12:42:59.381Z,90.90
2019-04-05T12:45:27.786Z,91.00
2019-04-05T12:47:58.971Z,91.10
2019-04-05T12:50:26.333Z,90.70
2019-04-05T12:52:56.846Z,90.70
2019-04-05T12:55:24.879Z,90.80
2019-04-05T12:57:53.300Z,90.30
2019-04-05T13:00:23.640Z,90.40
2019-04-05T13:02:53.383Z,90.90
2019-04-05T13:05:21.957Z,91.00
2019-04-05T13:07:50.700Z,90.90
2019-04-05T13:10:20.702Z,90.70
2019-04-05T13:12:51.637Z,90.80
2019-04-05T13:15:19.317Z,91.00
2019-04-05T13:17:47.732Z,91.10
2019-04-05T13:20:16.327Z,90.90
2019-04-05T13:22:44.774Z,90.90
2019-04-05T13:25:13.239Z,90.60
2019-04-05T13:27:42.193Z,90.70
2019-04-05T13:30:11.468Z,90.70
2019-04-05T13:32:39.880Z,90.50
2019-04-05T13:35:08.412Z,90.40
2019-04-05T13:37:36.824Z,90.10
2019-04-05T13:40:08.968Z,89.50
2019-04-05T13:42:37.365Z,90.00
2019-04-05T13:45:07.977Z,90.00
2019-04-05T13:47:38.969Z,90.20
2019-04-05T13:50:10.857Z,90.70
2019-04-05T13:52:37.233Z,90.40
2019-04-05T13:55:10.516Z,90.00
2019-04-05T13:57:40.113Z,90.00
2019-04-05T14:00:08.666Z,90.00
2019-04-05T14:02:37.207Z,90.40
2019-04-05T14:05:06.373Z,90.10
2019-04-05T14:07:34.781Z,90.50
2019-04-05T14:10:04.590Z,90.30
2019-04-05T14:12:33.004Z,90.40
2019-04-05T14:15:02.352Z,90.10
2019-04-05T14:17:30.747Z,89.80
2019-04-05T14:19:59.171Z,89.40
2019-04-05T14:22:27.585Z,89.40
2019-04-05T14:24:56.773Z,90.20
2019-04-05T14:27:25.351Z,90.40
2019-04-05T14:29:53.772Z,90.70
2019-04-05T14:32:22.289Z,90.50
2019-04-05T14:35:10.075Z,90.30
2019-04-05T14:37:38.487Z,90.30
2019-04-05T14:40:07.746Z,90.20
2019-04-05T14:42:36.144Z,90.30
2019-04-05T14:45:07.171Z,90.40
2019-04-05T14:47:35.631Z,90.40
2019-04-05T14:50:06.283Z,90.20
2019-04-05T14:52:34.748Z,90.10
2019-04-05T14:55:03.239Z,90.10
2019-04-05T14:57:32.591Z,90.10
2019-04-05T15:00:01.781Z,90.00
2019-04-05T15:02:30.204Z,90.40
2019-04-05T15:04:58.633Z,90.40
2019-04-05T15:07:27.038Z,90.30
2019-04-05T15:09:55.765Z,90.60
2019-04-05T15:12:24.368Z,90.70
2019-04-05T15:14:52.777Z,90.40
2019-04-05T15:17:21.184Z,90.40
2019-04-05T15:19:49.611Z,90.60
2019-04-05T15:22:17.998Z,90.90
2019-04-05T15:24:47.077Z,90.30
2019-04-05T15:27:16.513Z,90.30
2019-04-05T15:29:44.927Z,89.90
2019-04-05T15:32:13.343Z,90.00
2019-04-05T15:34:41.756Z,90.10
2019-04-05T15:37:10.165Z,89.90
2019-04-05T15:39:38.586Z,90.10
2019-04-05T15:42:07.001Z,89.20
2019-04-05T15:44:35.409Z,89.30
2019-04-05T15:47:03.898Z,89.90
2019-04-05T15:49:32.328Z,89.40
2019-04-05T15:52:00.787Z,89.50
2019-04-05T15:54:29.346Z,89.70
2019-04-05T15:56:59.328Z,88.90
2019-04-05T15:59:33.333Z,89.00
2019-04-05T16:02:01.443Z,88.70
2019-04-05T16:04:29.944Z,89.20
2019-04-05T16:06:58.356Z,89.70
2019-04-05T16:09:26.770Z,89.70
2019-04-05T16:11:55.184Z,90.10
2019-04-05T16:14:23.578Z,90.10
2019-04-05T16:16:53.611Z,90.20
2019-04-05T16:19:22.205Z,90.40
2019-04-05T16:21:50.637Z,90.40
2019-04-05T16:24:19.041Z,90.40
2019-04-05T16:26:47.459Z,90.10
2019-04-05T16:29:15.874Z,90.40
2019-04-05T16:31:44.273Z,90.50
2019-04-05T16:34:12.697Z,90.60
2019-04-05T16:36:41.119Z,90.60
2019-04-05T16:39:11.223Z,90.70
2019-04-05T16:41:39.626Z,90.70
2019-04-05T16:44:08.115Z,90.80
2019-04-05T16:46:36.519Z,91.10
2019-04-05T16:49:04.910Z,91.30
2019-04-05T16:51:33.322Z,91.50
2019-04-05T16:54:02.699Z,91.60
2019-04-05T16:56:31.177Z,91.20
2019-04-05T16:58:59.563Z,91.50
2019-04-05T17:01:27.982Z,91.70
2019-04-05T17:03:56.396Z,91.70
2019-04-05T17:06:24.812Z,91.70
2019-04-05T17:08:53.218Z,92.00
2019-04-05T17:11:21.659Z,91.70
2019-04-05T17:13:50.072Z,91.90
2019-04-05T17:16:18.463Z,91.90
2019-04-05T17:18:46.862Z,91.90
2019-04-05T17:21:15.271Z,92.10
2019-04-05T17:23:43.666Z,92.50
2019-04-05T17:26:12.083Z,92.60
2019-04-05T17:28:40.485Z,92.70
2019-04-05T17:31:08.900Z,92.60
2019-04-05T17:33:37.320Z,92.30
2019-04-05T17:36:05.724Z,92.70
2019-04-05T17:38:34.175Z,92.70
2019-04-05T17:41:02.615Z,92.80
2019-04-05T17:43:31.005Z,92.90
2019-04-05T17:45:59.434Z,93.10
2019-04-05T17:48:27.836Z,93.30
2019-04-05T17:50:56.264Z,93.30
2019-04-05T17:53:24.662Z,93.30
2019-04-05T17:55:53.363Z,93.50
2019-04-05T17:58:42.606Z,93.50
2019-04-05T18:01:11.013Z,93.50
2019-04-05T18:03:39.406Z,93.80
2019-04-05T18:06:07.824Z,94.00
2019-04-05T18:08:36.374Z,94.10
2019-04-05T18:11:04.858Z,94.20
2019-04-05T18:13:33.273Z,94.10
2019-04-05T18:16:01.691Z,94.00
2019-04-05T18:18:30.110Z,93.90
2019-04-05T18:20:58.504Z,94.00
2019-04-05T18:23:26.915Z,94.00
2019-04-05T18:25:55.314Z,94.00
2019-04-05T18:28:23.758Z,94.10
2019-04-05T18:30:52.170Z,94.50
2019-04-05T18:33:20.559Z,94.20
2019-04-05T18:35:49.039Z,94.40
2019-04-05T18:38:17.446Z,94.50
2019-04-05T18:40:45.859Z,94.80
2019-04-05T18:43:14.273Z,94.50
2019-04-05T18:45:42.747Z,94.40
2019-04-05T18:48:11.176Z,94.90
2019-04-05T18:50:39.566Z,95.10
2019-04-05T18:53:07.999Z,95.20
2019-04-05T18:55:36.740Z,95.20
2019-04-05T18:58:05.155Z,95.10
2019-04-05T19:00:33.562Z,95.30
2019-04-05T19:03:02.003Z,95.30
2019-04-05T19:05:30.386Z,95.30
2019-04-05T19:07:58.826Z,95.20
2019-04-05T19:10:36.808Z,95.20
2019-04-05T19:12:59.423Z,95.00
2019-04-05T19:15:27.491Z,94.80
2019-04-05T19:17:55.895Z,94.80
2019-04-05T19:20:24.303Z,94.80
2019-04-05T19:22:52.897Z,94.90
2019-04-05T19:25:21.368Z,94.80
2019-04-05T19:27:49.865Z,94.90
2019-04-05T19:50:20.434Z,94.60
2019-04-05T19:52:48.856Z,94.80
2019-04-05T19:55:17.261Z,94.80
2019-04-05T19:57:45.699Z,94.90
2019-04-05T20:00:14.768Z,95.00
2019-04-05T20:02:43.169Z,95.30
2019-04-05T20:05:11.670Z,95.30
2019-04-05T20:07:40.066Z,95.60
2019-04-05T20:10:08.529Z,95.80
2019-04-05T20:12:36.960Z,95.80
2019-04-05T20:15:07.102Z,95.60
2019-04-05T20:17:35.510Z,95.60
2019-04-05T20:20:06.258Z,95.90
2019-04-05T20:22:34.664Z,96.30
2019-04-05T20:25:04.727Z,96.20
2019-04-05T20:27:33.138Z,96.50
2019-04-05T20:30:01.605Z,96.80
2019-04-05T20:32:30.019Z,97.30
2019-04-05T20:34:58.443Z,97.40
2019-04-05T20:37:26.844Z,98.00
2019-04-05T20:39:55.256Z,97.60
2019-04-05T20:42:23.691Z,97.50
2019-04-05T20:44:52.087Z,97.90
2019-04-05T20:47:20.489Z,97.90
2019-04-05T20:49:48.894Z,98.00
2019-04-05T20:52:17.281Z,98.50
2019-04-05T20:54:45.703Z,98.60
2019-04-05T20:57:14.105Z,98.80
2019-04-05T20:59:42.511Z,99.00
2019-04-05T21:02:10.920Z,99.20
2019-04-05T21:04:39.330Z,99.60
2019-04-05T21:07:07.717Z,99.90
2019-04-05T21:09:36.146Z,99.90
2019-04-05T21:12:04.605Z,99.90
2019-04-05T21:14:33.090Z,99.90
2019-04-05T21:17:01.497Z,99.90
2019-04-05T21:19:29.915Z,99.90
2019-04-05T21:21:58.297Z,99.90
2019-04-05T21:24:35.765Z,99.90
2019-04-05T21:26:56.849Z,99.90
2019-04-05T21:29:25.284Z,99.90
2019-04-05T21:31:53.660Z,99.90
2019-04-05T21:34:22.067Z,99.90
2019-04-05T21:36:50.463Z,99.90
2019-04-05T21:39:18.887Z,99.90
2019-04-05T21:41:47.275Z,99.90
2019-04-05T21:44:15.683Z,99.90
2019-04-05T21:46:44.157Z,99.90
2019-04-05T21:49:12.581Z,99.90
2019-04-05T21:51:41.003Z,99.90
2019-04-05T21:54:09.416Z,99.90
2019-04-05T21:56:37.819Z,99.90
2019-04-05T21:59:06.230Z,99.90
2019-04-05T22:01:34.643Z,99.90
2019-04-05T22:04:03.112Z,99.90
2019-04-05T22:06:31.541Z,99.90
2019-04-05T22:08:59.925Z,99.90
2019-04-05T22:11:28.357Z,99.90
2019-04-05T22:13:56.758Z,99.90
2019-04-05T22:16:25.187Z,99.90
2019-04-05T22:18:53.598Z,99.90
2019-04-05T22:21:22.010Z,99.90
2019-04-05T22:23:50.415Z,99.90
2019-04-05T22:26:18.935Z,99.90
2019-04-05T22:29:06.671Z,99.90
2019-04-05T22:31:35.086Z,99.90
2019-04-05T22:34:03.563Z,99.90
2019-04-05T22:36:31.980Z,99.90
2019-04-05T22:39:00.393Z,99.90
2019-04-05T22:41:28.812Z,99.90
2019-04-05T22:43:57.214Z,99.90
2019-04-05T22:46:25.621Z,99.90
2019-04-05T22:48:54.042Z,99.90
2019-04-05T22:51:22.459Z,99.90
2019-04-05T22:53:50.845Z,99.90
2019-04-05T22:56:19.265Z,99.90
2019-04-05T22:58:47.670Z,99.90
2019-04-05T23:01:16.078Z,99.90
2019-04-05T23:03:44.478Z,99.90
2019-04-05T23:06:12.916Z,99.90
2019-04-05T23:08:41.305Z,99.90
2019-04-05T23:11:09.719Z,99.90
2019-04-05T23:13:38.110Z,99.90
2019-04-05T23:16:06.546Z,99.90
2019-04-05T23:18:34.930Z,99.90
2019-04-05T23:21:03.355Z,99.90
2019-04-05T23:23:31.724Z,99.90
2019-04-05T23:26:00.152Z,99.90
2019-04-05T23:28:28.542Z,99.90
2019-04-05T23:30:56.959Z,99.90
2019-04-05T23:33:25.350Z,99.90
2019-04-05T23:35:53.759Z,99.90
2019-04-05T23:38:22.167Z,99.90
2019-04-05T23:40:50.635Z,99.90
2019-04-05T23:43:19.031Z,99.90
2019-04-05T23:45:47.454Z,99.90
2019-04-05T23:48:15.858Z,99.90
2019-04-05T23:50:44.261Z,99.90
2019-04-05T23:53:12.653Z,99.90
2019-04-05T23:55:41.060Z,99.90
2019-04-05T23:58:09.518Z,99.90
